Time;durP1;ratioP1;P1;durP2;ratioP2;P2;SDS_P1;SDS_P2;PMS_P1;PMS_P2;Temp;Humidity;BMP_temperature;BMP_pressure;BME280_temperature;BME280_humidity;BME280_pressure;Samples;Min_cycle;Max_cycle;Signal;HPM_P1;HPM_P2
2023/04/06 00:00:07;;;;;;;11.50;6.80;;;;;;;5.20;51.33;100076.31;5064060;28;20036;-77
2023/04/06 00:02:32;;;;;;;13.48;8.40;;;;;;;5.17;51.18;100078.59;5063706;28;20020;-78
2023/04/06 00:04:58;;;;;;;14.10;7.03;;;;;;;5.09;51.34;100079.72;5063904;28;20028;-78
2023/04/06 00:07:23;;;;;;;13.83;8.33;;;;;;;5.12;51.32;100082.81;5063308;28;20031;-77
2023/04/06 00:09:48;;;;;;;22.08;8.68;;;;;;;5.04;51.39;100071.44;5063926;28;20292;-79
2023/04/06 00:12:14;;;;;;;13.98;9.35;;;;;;;5.04;51.77;100074.16;5064002;28;20196;-77
2023/04/06 00:14:40;;;;;;;16.35;8.27;;;;;;;4.93;51.50;100076.50;5062955;28;20115;-77
2023/04/06 00:17:05;;;;;;;12.82;7.43;;;;;;;4.89;52.12;100070.72;5063425;28;21171;-78
2023/04/06 00:19:31;;;;;;;14.33;8.07;;;;;;;4.92;52.15;100068.63;5063022;28;20082;-78
2023/04/06 00:21:56;;;;;;;17.88;8.90;;;;;;;4.98;52.11;100067.75;5064044;28;20699;-77
2023/04/06 00:24:21;;;;;;;18.93;7.17;;;;;;;4.77;52.64;100073.31;5062849;28;20618;-77
2023/04/06 00:26:46;;;;;;;16.35;9.45;;;;;;;4.97;51.69;100069.63;5064210;28;20245;-77
2023/04/06 00:29:12;;;;;;;16.63;7.67;;;;;;;4.92;52.00;100061.34;5063551;28;20024;-77
2023/04/06 00:31:37;;;;;;;14.27;8.37;;;;;;;4.86;52.15;100059.53;5062452;28;20257;-78
2023/04/06 00:34:02;;;;;;;13.73;7.90;;;;;;;5.05;52.10;100056.88;5062565;28;20361;-78
2023/04/06 00:36:27;;;;;;;12.05;7.18;;;;;;;5.14;51.68;100058.25;5062895;28;20948;-79
2023/04/06 00:38:53;;;;;;;16.10;8.10;;;;;;;5.24;51.79;100050.50;5062497;28;20043;-78
2023/04/06 00:41:18;;;;;;;15.43;8.30;;;;;;;5.29;51.52;100052.50;5063109;28;20362;-78
2023/04/06 00:43:43;;;;;;;16.48;7.20;;;;;;;5.29;51.65;100044.38;5063172;28;20659;-78
2023/04/06 00:46:09;;;;;;;13.70;8.83;;;;;;;5.34;51.64;100039.16;5062775;28;20068;-79
2023/04/06 00:48:34;;;;;;;14.13;7.53;;;;;;;5.32;50.83;100033.16;5063025;28;20254;-79
2023/04/06 00:51:00;;;;;;;13.35;7.00;;;;;;;5.36;50.93;100030.81;5062989;28;20032;-79
2023/04/06 00:53:26;;;;;;;14.00;8.27;;;;;;;5.49;50.41;100029.88;5062766;28;20020;-79
2023/04/06 00:55:51;;;;;;;14.03;7.80;;;;;;;5.60;49.61;100029.09;5062489;28;20188;-79
2023/04/06 00:58:16;;;;;;;16.57;7.73;;;;;;;5.64;49.86;100028.66;5062673;28;20253;-79
2023/04/06 01:00:42;;;;;;;12.32;7.68;;;;;;;5.72;49.39;100022.94;5063925;28;20245;-79
2023/04/06 01:03:08;;;;;;;13.27;7.43;;;;;;;5.79;49.08;100022.88;5062450;28;20037;-78
2023/04/06 01:05:34;;;;;;;13.60;6.82;;;;;;;5.87;48.81;100027.16;5061855;28;20039;-79
2023/04/06 01:08:00;;;;;;;10.18;5.53;;;;;;;5.91;48.68;100020.22;5063112;28;20119;-80
2023/04/06 01:10:27;;;;;;;15.50;7.53;;;;;;;5.92;48.33;100011.88;5062388;28;20123;-79
2023/04/06 01:12:52;;;;;;;12.52;7.15;;;;;;;5.97;48.18;100013.91;5062734;28;20470;-79
2023/04/06 01:15:18;;;;;;;13.40;7.28;;;;;;;6.01;47.01;100003.44;5062218;28;20035;-79
2023/04/06 01:17:43;;;;;;;11.10;6.13;;;;;;;6.05;47.41;100005.47;5062528;28;20036;-79
2023/04/06 01:20:08;;;;;;;12.05;6.68;;;;;;;6.03;47.44;100006.75;5062820;28;20108;-80
2023/04/06 01:22:34;;;;;;;13.90;7.55;;;;;;;6.05;47.03;100004.63;5062638;28;20032;-80
2023/04/06 01:24:59;;;;;;;12.70;7.60;;;;;;;6.16;47.18;100003.88;5044573;28;20044;-80
2023/04/06 01:27:26;;;;;;;16.63;6.90;;;;;;;6.22;46.66;99998.63;5061984;28;20500;-80
2023/04/06 01:29:51;;;;;;;13.80;7.40;;;;;;;6.21;46.84;100002.38;5063018;28;20082;-80
2023/04/06 01:32:16;;;;;;;12.98;6.72;;;;;;;6.11;46.86;99992.09;5061759;28;20040;-79
2023/04/06 01:34:42;;;;;;;14.10;7.57;;;;;;;6.25;46.53;99982.75;5061896;28;20036;-79
2023/04/06 01:37:07;;;;;;;11.07;5.93;;;;;;;6.17;46.66;99992.00;5062922;28;20730;-80
2023/04/06 01:39:32;;;;;;;13.15;8.07;;;;;;;6.13;47.19;99990.81;5062692;28;20275;-79
2023/04/06 01:41:58;;;;;;;12.77;6.28;;;;;;;6.07;47.46;99986.31;5062716;28;20032;-80
2023/04/06 01:44:23;;;;;;;16.98;8.02;;;;;;;6.10;47.18;99975.03;5061239;28;20032;-79
2023/04/06 01:46:48;;;;;;;28.83;7.07;;;;;;;6.06;46.72;99981.97;5044329;28;20496;-80
2023/04/06 01:49:13;;;;;;;10.00;5.80;;;;;;;6.18;47.39;99985.53;5061150;28;20267;-79
2023/04/06 01:51:38;;;;;;;17.10;8.60;;;;;;;6.26;47.07;99988.97;5062202;28;20301;-79
2023/04/06 01:54:04;;;;;;;13.60;6.20;;;;;;;6.15;47.22;99991.41;5061760;28;20269;-80
2023/04/06 01:56:29;;;;;;;16.65;6.68;;;;;;;5.94;47.49;99981.88;5061648;28;20269;-80
2023/04/06 01:58:55;;;;;;;13.18;6.85;;;;;;;5.99;47.50;99990.16;5061750;28;20032;-80
2023/04/06 02:01:20;;;;;;;14.20;6.43;;;;;;;5.92;47.25;99984.00;5061146;28;20924;-80
2023/04/06 02:03:46;;;;;;;17.17;8.52;;;;;;;5.94;47.69;99980.00;5061535;28;20039;-80
2023/04/06 02:06:11;;;;;;;15.18;6.25;;;;;;;6.07;47.06;99981.75;5061664;28;20032;-79
2023/04/06 02:08:36;;;;;;;10.67;5.97;;;;;;;5.93;47.20;99972.94;5061879;28;20021;-79
2023/04/06 02:11:02;;;;;;;13.32;7.00;;;;;;;5.99;47.57;99976.63;5061338;28;20365;-79
2023/04/06 02:13:27;;;;;;;12.90;6.28;;;;;;;6.06;47.48;99979.28;5061548;28;20123;-80
2023/04/06 02:15:52;;;;;;;13.85;6.28;;;;;;;6.06;47.02;99979.28;5060982;28;20033;-80
2023/04/06 02:18:18;;;;;;;10.67;6.33;;;;;;;5.96;47.27;99975.19;5060928;28;20574;-79
2023/04/06 02:20:44;;;;;;;12.07;6.13;;;;;;;6.04;47.56;99975.94;5060875;28;20261;-79
2023/04/06 02:23:09;;;;;;;13.27;6.25;;;;;;;6.07;47.67;99975.50;5060950;28;20119;-79
2023/04/06 02:25:35;;;;;;;13.13;6.82;;;;;;;6.06;47.44;99968.44;5058991;28;20036;-79
2023/04/06 02:28:00;;;;;;;13.02;6.45;;;;;;;6.08;47.37;99977.16;5061397;28;20478;-79
2023/04/06 02:30:25;;;;;;;10.38;6.28;;;;;;;6.15;47.64;99974.34;5060704;28;20117;-79
2023/04/06 02:32:50;;;;;;;12.87;6.37;;;;;;;6.15;47.83;99971.63;5061086;28;20044;-79
2023/04/06 02:35:16;;;;;;;14.48;7.38;;;;;;;5.93;47.92;99967.53;5060526;28;20284;-79
2023/04/06 02:37:41;;;;;;;11.32;6.43;;;;;;;6.06;48.46;99973.84;5061448;28;20028;-79
2023/04/06 02:40:07;;;;;;;10.30;5.63;;;;;;;6.03;48.48;99971.56;5060843;28;20115;-79
2023/04/06 02:42:32;;;;;;;14.95;7.90;;;;;;;5.97;48.76;99967.88;5060806;28;20035;-79
2023/04/06 02:44:58;;;;;;;14.43;7.00;;;;;;;5.95;48.67;99973.53;5061216;28;20040;-78
2023/04/06 02:47:23;;;;;;;11.27;4.95;;;;;;;5.76;49.02;99966.47;5060770;28;20028;-79
2023/04/06 02:49:48;;;;;;;12.73;5.40;;;;;;;5.88;49.28;99971.97;5061224;28;20032;-79
2023/04/06 02:52:13;;;;;;;13.10;7.37;;;;;;;5.88;49.14;99969.28;5060677;28;20273;-79
2023/04/06 02:54:39;;;;;;;13.55;7.22;;;;;;;5.88;49.57;99963.88;5060477;28;20368;-79
2023/04/06 02:57:05;;;;;;;12.80;6.72;;;;;;;5.78;49.58;99958.97;5061698;28;20028;-79
2023/04/06 02:59:30;;;;;;;13.60;6.38;;;;;;;5.57;50.13;99958.41;5061696;28;20386;-78
2023/04/06 03:01:56;;;;;;;17.67;8.20;;;;;;;5.69;49.71;99959.31;5060828;28;20037;-79
2023/04/06 03:04:22;;;;;;;12.23;6.80;;;;;;;5.78;49.55;99954.38;5059849;28;20270;-78
2023/04/06 03:06:47;;;;;;;12.43;5.70;;;;;;;5.80;49.14;99957.69;5043053;28;20261;-78
2023/04/06 03:09:14;;;;;;;13.80;7.25;;;;;;;5.79;48.97;99957.94;5059588;28;20044;-79
2023/04/06 03:11:39;;;;;;;11.52;6.82;;;;;;;5.80;49.40;99954.16;5060573;28;20052;-79
2023/04/06 03:14:05;;;;;;;12.43;6.32;;;;;;;5.75;49.09;99956.72;5060271;28;20060;-79
2023/04/06 03:16:30;;;;;;;10.82;7.32;;;;;;;5.58;49.23;99951.94;5042448;28;20037;-79
2023/04/06 03:18:55;;;;;;;13.03;6.57;;;;;;;5.67;48.46;99947.88;5060374;28;20116;-79
2023/04/06 03:21:21;;;;;;;11.98;6.53;;;;;;;5.73;48.94;99959.66;5060807;28;20326;-79
2023/04/06 03:23:46;;;;;;;13.32;6.75;;;;;;;5.85;48.93;99951.59;5060074;28;20029;-80
2023/04/06 03:26:11;;;;;;;13.15;6.40;;;;;;;5.86;49.65;99958.66;5060767;28;20032;-79
2023/04/06 03:28:36;;;;;;;15.80;8.33;;;;;;;5.85;49.29;99957.03;5060781;28;20025;-79
2023/04/06 03:31:02;;;;;;;12.83;7.37;;;;;;;5.71;49.17;99956.38;5060811;28;20257;-78
2023/04/06 03:33:27;;;;;;;13.37;6.23;;;;;;;5.63;49.19;99953.97;5060172;28;20262;-78
2023/04/06 03:35:53;;;;;;;12.53;6.13;;;;;;;5.75;49.11;99959.44;5060163;28;20843;-79
2023/04/06 03:38:18;;;;;;;13.73;6.50;;;;;;;5.64;48.58;99953.72;5060458;28;20285;-80
2023/04/06 03:40:44;;;;;;;14.38;7.40;;;;;;;5.70;48.79;99966.34;5060346;28;20669;-78
2023/04/06 03:43:09;;;;;;;13.98;6.72;;;;;;;5.71;48.96;99959.91;5060157;28;20400;-78
2023/04/06 03:45:34;;;;;;;14.43;7.32;;;;;;;5.76;47.98;99958.38;5041558;28;20036;-79
2023/04/06 03:48:00;;;;;;;12.93;6.57;;;;;;;5.75;47.86;99962.97;5060680;28;20033;-79
2023/04/06 03:50:25;;;;;;;14.23;6.70;;;;;;;5.91;48.40;99960.69;5060474;28;20334;-79
2023/04/06 03:52:51;;;;;;;10.68;6.47;;;;;;;5.85;48.39;99962.44;5060365;28;20258;-79
2023/04/06 03:55:16;;;;;;;13.73;8.57;;;;;;;5.93;48.16;99956.69;5059704;28;20083;-78
2023/04/06 03:57:41;;;;;;;10.88;6.90;;;;;;;5.99;48.38;99956.81;5060213;28;20254;-79
2023/04/06 04:00:07;;;;;;;11.93;6.00;;;;;;;5.76;48.35;99955.66;5060713;28;20028;-79
2023/04/06 04:02:33;;;;;;;13.40;6.50;;;;;;;5.84;47.94;99963.47;5059926;28;20260;-79
2023/04/06 04:04:58;;;;;;;14.38;6.53;;;;;;;5.94;48.24;99958.34;5060386;28;20048;-79
2023/04/06 04:07:23;;;;;;;11.47;7.00;;;;;;;5.88;47.87;99958.44;5060321;28;20587;-79
2023/04/06 04:09:48;;;;;;;14.53;6.83;;;;;;;5.90;47.86;99962.56;5060834;28;20304;-79
2023/04/06 04:12:15;;;;;;;16.38;8.05;;;;;;;5.86;47.80;99964.06;5060967;28;20276;-79
2023/04/06 04:14:40;;;;;;;18.85;7.70;;;;;;;5.91;48.16;99961.53;5063203;28;20032;-79
2023/04/06 04:17:05;;;;;;;17.48;7.47;;;;;;;5.85;48.09;99962.44;5064306;28;20032;-79
2023/04/06 04:19:31;;;;;;;16.92;7.55;;;;;;;5.78;47.59;99948.97;5063106;28;20655;-79
2023/04/06 04:21:56;;;;;;;13.98;6.18;;;;;;;5.76;47.24;99955.66;5064001;28;20032;-79
2023/04/06 04:24:21;;;;;;;9.27;5.80;;;;;;;5.66;47.39;99959.75;5062600;28;20078;-79
2023/04/06 04:26:46;;;;;;;11.30;6.20;;;;;;;5.89;47.16;99957.38;5063794;28;20371;-79
2023/04/06 04:29:12;;;;;;;12.23;6.13;;;;;;;5.96;47.49;99961.66;5063057;28;20032;-79
2023/04/06 04:31:37;;;;;;;17.60;6.93;;;;;;;5.91;46.95;99953.41;5063724;28;20258;-79
2023/04/06 04:34:03;;;;;;;15.77;7.13;;;;;;;5.89;47.20;99960.91;5063032;28;20082;-79
2023/04/06 04:36:28;;;;;;;13.70;7.68;;;;;;;5.91;47.79;99950.69;5063051;28;21212;-78
2023/04/06 04:38:54;;;;;;;14.60;7.20;;;;;;;5.84;47.23;99949.94;5063450;28;20048;-79
2023/04/06 04:41:19;;;;;;;11.38;6.38;;;;;;;5.87;47.36;99951.38;5045329;28;20257;-79
2023/04/06 04:43:45;;;;;;;10.98;5.38;;;;;;;5.88;47.29;99953.84;5063226;28;20033;-79
2023/04/06 04:46:10;;;;;;;16.20;6.38;;;;;;;5.77;46.84;99947.34;5063275;28;20397;-79
2023/04/06 04:48:36;;;;;;;11.73;6.82;;;;;;;5.76;47.10;99942.97;5062944;28;20029;-79
2023/04/06 04:51:02;;;;;;;15.55;7.25;;;;;;;5.59;46.92;99949.00;5062744;28;20039;-79
2023/04/06 04:53:27;;;;;;;13.30;5.10;;;;;;;5.70;47.59;99944.72;5062858;28;20067;-79
2023/04/06 04:55:52;;;;;;;13.18;5.82;;;;;;;5.73;46.80;99944.25;5062173;28;20131;-79
2023/04/06 04:58:19;;;;;;;9.30;5.43;;;;;;;5.75;46.43;99944.03;5063032;28;20379;-79
2023/04/06 05:00:45;;;;;;;14.25;7.57;;;;;;;5.78;46.07;99948.97;5063019;28;20258;-79
2023/04/06 05:03:17;;;;;;;14.10;6.38;;;;;;;5.99;45.97;99948.72;5062923;28;20084;-79
2023/04/06 05:05:42;;;;;;;9.95;5.45;;;;;;;6.00;45.94;99950.38;5061863;28;20404;-79
2023/04/06 05:08:08;;;;;;;9.87;5.80;;;;;;;6.02;46.60;99948.25;5062777;28;20040;-78
2023/04/06 05:10:34;;;;;;;12.40;6.00;;;;;;;5.87;46.43;99943.25;5062353;28;20273;-79
2023/04/06 05:12:59;;;;;;;11.32;7.57;;;;;;;5.84;46.19;99944.53;5062880;28;20257;-79
2023/04/06 05:15:25;;;;;;;11.75;6.35;;;;;;;5.75;46.04;99940.50;5062049;28;20566;-79
2023/04/06 05:17:50;;;;;;;12.10;5.63;;;;;;;5.88;46.01;99943.00;5062237;28;20024;-78
2023/04/06 05:20:15;;;;;;;12.73;7.05;;;;;;;5.92;46.32;99949.63;5062580;28;20153;-79
2023/04/06 05:22:41;;;;;;;12.57;5.88;;;;;;;5.86;46.96;99947.84;5062518;28;20027;-78
2023/04/06 05:25:06;;;;;;;12.30;5.43;;;;;;;5.81;46.81;99947.72;5060675;28;20037;-78
2023/04/06 05:27:31;;;;;;;11.35;6.15;;;;;;;5.64;46.15;99936.66;5062560;28;20261;-79
2023/04/06 05:29:57;;;;;;;10.15;6.35;;;;;;;5.59;46.53;99938.19;5062735;28;20117;-78
2023/04/06 05:32:24;;;;;;;15.15;6.72;;;;;;;5.65;45.75;99941.03;5061399;28;20028;-78
2023/04/06 05:34:49;;;;;;;12.73;6.43;;;;;;;5.79;45.83;99941.69;5061863;28;20032;-78
2023/04/06 05:37:15;;;;;;;16.92;6.93;;;;;;;5.85;45.80;99940.78;5062144;28;20048;-78
2023/04/06 05:39:40;;;;;;;9.20;5.22;;;;;;;6.00;45.76;99943.06;5062362;28;20035;-79
2023/04/06 05:42:06;;;;;;;13.17;7.40;;;;;;;6.06;45.31;99938.66;5062370;28;20684;-79
2023/04/06 05:44:31;;;;;;;12.73;6.00;;;;;;;6.00;44.97;99944.97;5061312;28;20318;-79
2023/04/06 05:46:57;;;;;;;15.48;7.45;;;;;;;5.98;45.65;99941.66;5062162;28;20024;-79
2023/04/06 05:49:22;;;;;;;10.43;5.33;;;;;;;5.96;45.18;99936.44;5061701;28;20041;-79
2023/04/06 05:51:47;;;;;;;14.97;8.20;;;;;;;5.91;45.02;99944.44;5061948;28;20249;-79
2023/04/06 05:54:12;;;;;;;13.40;6.30;;;;;;;6.02;44.90;99940.94;5061342;28;20722;-80
2023/04/06 05:56:37;;;;;;;13.53;6.37;;;;;;;6.07;44.64;99943.00;5061698;28;20277;-79
2023/04/06 05:59:03;;;;;;;17.70;7.63;;;;;;;6.17;45.74;99943.28;5061732;28;20293;-79
2023/04/06 06:01:28;;;;;;;14.40;6.57;;;;;;;6.26;45.55;99945.66;5061632;28;20261;-79
2023/04/06 06:03:54;;;;;;;13.80;6.93;;;;;;;6.29;45.05;99948.72;5061758;28;20273;-79
2023/04/06 06:06:19;;;;;;;12.65;6.65;;;;;;;6.17;45.22;99954.09;5061984;28;20040;-79
2023/04/06 06:08:45;;;;;;;14.57;6.72;;;;;;;6.27;45.18;99948.13;5059809;28;20086;-79
2023/04/06 06:11:11;;;;;;;11.88;6.75;;;;;;;6.27;44.53;99944.59;5060967;28;20058;-78
2023/04/06 06:13:36;;;;;;;12.25;7.10;;;;;;;6.23;44.93;99946.94;5061669;28;20029;-79
2023/04/06 06:16:04;;;;;;;9.75;5.20;;;;;;;6.24;45.51;99942.34;5061033;28;20029;-78
2023/04/06 06:18:30;;;;;;;10.80;5.90;;;;;;;6.41;45.51;99943.34;5059587;28;20040;-79
2023/04/06 06:20:55;;;;;;;14.68;6.43;;;;;;;6.36;44.65;99945.09;5061465;28;20035;-79
2023/04/06 06:23:20;;;;;;;11.30;5.45;;;;;;;6.49;45.25;99944.06;5061364;28;20036;-79
2023/04/06 06:25:46;;;;;;;11.70;6.20;;;;;;;6.38;45.13;99945.69;5061014;28;20062;-78
2023/04/06 06:28:11;;;;;;;15.07;7.88;;;;;;;6.42;44.87;99936.88;5061512;28;20062;-82
2023/04/06 06:30:36;;;;;;;15.38;7.82;;;;;;;6.47;44.59;99941.56;5061427;28;20090;-77
2023/04/06 06:33:03;;;;;;;17.45;5.57;;;;;;;6.41;44.71;99940.63;5061448;28;20028;-79
2023/04/06 06:35:28;;;;;;;13.13;6.25;;;;;;;6.35;44.62;99933.44;5060215;28;20036;-78
2023/04/06 06:37:53;;;;;;;11.18;6.20;;;;;;;6.53;44.72;99948.75;5061450;28;20028;-78
2023/04/06 06:40:19;;;;;;;13.40;5.90;;;;;;;6.51;44.64;99941.94;5061205;28;20048;-78
2023/04/06 06:42:45;;;;;;;14.35;6.70;;;;;;;6.53;44.52;99947.94;5061399;28;20036;-79
2023/04/06 06:45:10;;;;;;;14.85;6.20;;;;;;;6.53;44.70;99943.34;5061122;28;20089;-79
2023/04/06 06:47:35;;;;;;;12.73;7.43;;;;;;;6.47;44.61;99946.19;5060283;28;20119;-79
2023/04/06 06:50:02;;;;;;;11.95;6.90;;;;;;;6.50;44.75;99945.72;5060956;28;21189;-78
2023/04/06 06:52:28;;;;;;;10.27;5.53;;;;;;;6.41;45.34;99940.63;5060609;28;20029;-78
2023/04/06 06:54:54;;;;;;;13.40;6.18;;;;;;;6.63;44.72;99933.84;5060597;28;20040;-78
2023/04/06 06:57:19;;;;;;;13.35;5.95;;;;;;;6.57;44.78;99941.00;5060811;28;20033;-78
2023/04/06 06:59:44;;;;;;;13.25;7.32;;;;;;;6.57;44.34;99938.28;5060976;28;20416;-78
2023/04/06 07:02:10;;;;;;;13.55;6.40;;;;;;;6.83;44.96;99944.34;5061787;28;20036;-82
2023/04/06 07:04:35;;;;;;;12.10;5.47;;;;;;;6.86;45.07;99941.16;5060294;28;20705;-81
2023/04/06 07:07:01;;;;;;;9.93;5.50;;;;;;;7.00;44.96;99927.34;5061563;28;20277;-82
2023/04/06 07:09:26;;;;;;;12.50;6.05;;;;;;;7.02;44.88;99946.09;5061127;28;20277;-79
2023/04/06 07:11:51;;;;;;;10.93;5.65;;;;;;;7.14;45.16;99938.75;5061144;28;20516;-78
2023/04/06 07:14:17;;;;;;;11.57;5.70;;;;;;;7.20;44.72;99934.28;5060637;28;20070;-79
2023/04/06 07:16:44;;;;;;;14.25;6.75;;;;;;;7.11;44.65;99940.09;5060894;28;20028;-78
2023/04/06 07:19:10;;;;;;;14.50;7.15;;;;;;;6.82;45.11;99929.13;5060993;28;20032;-78
2023/04/06 07:21:35;;;;;;;11.40;6.40;;;;;;;6.98;44.60;99929.47;5061335;28;20070;-78
2023/04/06 07:24:01;;;;;;;14.20;7.28;;;;;;;6.88;44.71;99930.06;5060924;28;20041;-78
2023/04/06 07:26:27;;;;;;;10.82;5.78;;;;;;;7.11;44.52;99926.53;5061032;28;20028;-77
2023/04/06 07:28:52;;;;;;;11.15;6.30;;;;;;;7.16;44.08;99930.41;5061101;28;20025;-78
2023/04/06 07:31:17;;;;;;;10.55;5.63;;;;;;;7.30;44.74;99926.34;5060835;28;20037;-78
2023/04/06 07:33:42;;;;;;;15.43;7.17;;;;;;;7.29;44.15;99930.16;5059921;28;20071;-78
2023/04/06 07:36:08;;;;;;;15.73;7.28;;;;;;;7.38;44.19;99927.06;5060694;28;20362;-78
2023/04/06 07:38:33;;;;;;;14.00;6.70;;;;;;;7.26;44.36;99918.94;5060505;28;20063;-78
2023/04/06 07:40:58;;;;;;;13.17;6.23;;;;;;;7.07;44.34;99919.94;5060837;28;20039;-78
2023/04/06 07:43:23;;;;;;;12.15;7.28;;;;;;;7.21;44.78;99927.78;5060719;28;20261;-78
2023/04/06 07:45:49;;;;;;;15.20;7.30;;;;;;;7.35;44.73;99918.34;5059762;28;20040;-78
2023/04/06 07:48:14;;;;;;;14.75;7.70;;;;;;;7.46;44.42;99926.69;5063244;28;20315;-78
2023/04/06 07:50:40;;;;;;;10.73;5.28;;;;;;;7.54;44.20;99923.59;5064510;28;20060;-79
2023/04/06 07:53:05;;;;;;;20.00;7.53;;;;;;;7.64;44.39;99924.88;5064545;28;20059;-78
2023/04/06 07:55:30;;;;;;;9.20;5.15;;;;;;;7.69;44.46;99922.25;5063425;28;20041;-78
2023/04/06 07:57:55;;;;;;;10.93;6.40;;;;;;;7.74;44.63;99919.63;5064590;28;20141;-78
2023/04/06 08:00:21;;;;;;;9.80;4.97;;;;;;;7.68;44.42;99924.16;5064002;28;20291;-78
2023/04/06 08:02:46;;;;;;;11.20;6.28;;;;;;;7.67;44.77;99917.06;5063809;28;20337;-78
2023/04/06 08:05:11;;;;;;;9.87;4.73;;;;;;;7.71;44.34;99920.09;5063627;28;20755;-78
2023/04/06 08:07:37;;;;;;;13.45;7.30;;;;;;;7.71;44.62;99920.09;5064149;28;20241;-79
2023/04/06 08:10:03;;;;;;;16.05;7.32;;;;;;;7.86;44.43;99926.91;5063945;28;20574;-79
2023/04/06 08:12:28;;;;;;;16.85;6.65;;;;;;;7.88;44.95;99927.47;5045478;28;20025;-78
2023/04/06 08:14:53;;;;;;;10.50;5.67;;;;;;;7.87;44.68;99915.00;5063714;28;20123;-78
2023/04/06 08:17:18;;;;;;;16.00;6.67;;;;;;;8.05;45.15;99913.97;5061673;28;20258;-78
2023/04/06 08:19:44;;;;;;;11.73;7.22;;;;;;;8.03;44.55;99916.09;5063882;28;20269;-79
2023/04/06 08:22:10;;;;;;;10.73;6.53;;;;;;;8.23;45.02;99909.38;5063999;28;20043;-78
2023/04/06 08:24:35;;;;;;;12.52;6.53;;;;;;;8.36;44.52;99902.81;5063307;28;20444;-78
2023/04/06 08:27:00;;;;;;;13.00;6.17;;;;;;;8.50;44.49;99920.41;5063915;28;20424;-79
2023/04/06 08:29:25;;;;;;;13.63;7.13;;;;;;;8.61;44.57;99917.88;5063392;28;20276;-79
2023/04/06 08:31:51;;;;;;;11.40;6.03;;;;;;;8.69;44.50;99914.75;5063836;28;20478;-79
2023/04/06 08:34:16;;;;;;;10.43;5.57;;;;;;;8.84;44.22;99913.34;5063016;28;20119;-78
2023/04/06 08:36:41;;;;;;;10.97;6.13;;;;;;;9.04;43.39;99901.94;5063589;28;20277;-78
2023/04/06 08:39:06;;;;;;;16.20;6.78;;;;;;;9.26;43.58;99908.44;5063301;28;20618;-79
2023/04/06 08:41:32;;;;;;;13.17;6.23;;;;;;;9.39;43.44;99912.69;5063315;28;20048;-78
2023/04/06 08:44:00;;;;;;;12.60;7.25;;;;;;;9.62;42.36;99910.81;5063204;28;20257;-79
2023/04/06 08:46:30;;;;;;;13.93;6.10;;;;;;;9.83;42.26;99914.56;5063403;28;20048;-78
2023/04/06 08:49:00;;;;;;;15.48;8.43;;;;;;;9.96;41.48;99915.22;5063326;28;20032;-78
2023/04/06 08:51:26;;;;;;;15.20;7.47;;;;;;;10.04;41.83;99902.00;5063289;28;20028;-79
2023/04/06 08:53:56;;;;;;;14.00;7.65;;;;;;;10.16;41.51;99904.53;5063137;28;20039;-78
2023/04/06 08:56:26;;;;;;;22.83;8.45;;;;;;;10.22;40.87;99901.84;5063155;28;20043;-79
2023/04/06 08:58:53;;;;;;;14.93;6.60;;;;;;;10.28;40.60;99900.81;5063102;28;20052;-79
2023/04/06 09:01:22;;;;;;;14.45;7.93;;;;;;;10.34;40.54;99894.34;5062894;28;20028;-79
2023/04/06 09:03:50;;;;;;;16.80;9.00;;;;;;;10.38;40.25;99895.47;5062628;28;20035;-79
2023/04/06 09:06:16;;;;;;;15.18;7.55;;;;;;;10.48;40.12;99899.34;5063292;28;20067;-78
2023/04/06 09:08:41;;;;;;;13.55;7.68;;;;;;;10.67;40.82;99893.50;5064180;28;20058;-81
2023/04/06 09:11:08;;;;;;;14.15;7.00;;;;;;;10.74;40.54;99902.28;5063263;28;20655;-80
2023/04/06 09:13:54;;;;;;;17.50;8.43;;;;;;;10.78;40.35;99889.75;5063669;28;20520;-78
2023/04/06 09:16:20;;;;;;;19.67;8.77;;;;;;;10.80;40.14;99894.97;5063073;28;20694;-80
2023/04/06 09:18:46;;;;;;;18.15;7.43;;;;;;;10.81;40.04;99900.16;5045121;28;20028;-81
2023/04/06 09:21:12;;;;;;;13.82;7.72;;;;;;;10.90;39.51;99894.22;5062398;28;20036;-79
2023/04/06 09:23:38;;;;;;;16.75;8.07;;;;;;;11.08;39.24;99885.56;5062466;28;20056;-80
2023/04/06 09:26:14;;;;;;;17.98;10.50;;;;;;;11.02;38.34;99881.19;5062099;28;20493;-80
2023/04/06 09:28:47;;;;;;;13.45;7.47;;;;;;;10.80;38.25;99887.59;5062540;28;20032;-79
2023/04/06 09:31:14;;;;;;;18.15;9.25;;;;;;;10.82;38.38;99887.34;5061729;28;20059;-80
2023/04/06 09:33:41;;;;;;;18.35;8.15;;;;;;;10.89;38.71;99892.53;5062571;28;20028;-80
2023/04/06 09:36:09;;;;;;;20.95;11.18;;;;;;;10.84;38.13;99890.63;5062645;28;20043;-80
2023/04/06 09:38:37;;;;;;;15.60;9.00;;;;;;;10.98;38.77;99883.59;5062430;28;20127;-80
2023/04/06 09:41:02;;;;;;;21.02;9.98;;;;;;;11.00;38.50;99877.91;5062132;28;20139;-80
2023/04/06 09:43:27;;;;;;;17.90;8.75;;;;;;;11.03;39.24;99877.34;5062087;28;20058;-80
2023/04/06 09:45:53;;;;;;;16.40;8.65;;;;;;;11.22;39.43;99879.63;5061946;28;20042;-80
2023/04/06 09:48:21;;;;;;;18.35;9.70;;;;;;;11.10;39.54;99874.41;5061822;28;20044;-80
2023/04/06 09:50:50;;;;;;;16.42;9.02;;;;;;;11.29;39.32;99877.47;5062459;28;20052;-80
2023/04/06 09:53:19;;;;;;;18.80;9.55;;;;;;;11.48;39.23;99877.00;5062759;28;20033;-80
2023/04/06 09:55:46;;;;;;;16.02;9.13;;;;;;;11.49;38.88;99875.09;5061757;28;20046;-80
2023/04/06 09:58:20;;;;;;;14.50;7.53;;;;;;;11.41;38.55;99876.44;5061890;28;20508;-80
2023/04/06 10:00:54;;;;;;;18.67;9.38;;;;;;;11.49;39.37;99875.88;5058093;28;20111;-80
2023/04/06 10:03:37;;;;;;;16.73;9.07;;;;;;;11.46;38.74;99876.44;5061967;28;20062;-80
2023/04/06 10:06:08;;;;;;;17.27;8.75;;;;;;;11.48;38.64;99881.63;5061808;28;20037;-80
2023/04/06 10:08:36;;;;;;;19.25;9.73;;;;;;;11.48;39.23;99871.53;5062069;28;20039;-80
2023/04/06 10:11:01;;;;;;;18.08;9.70;;;;;;;11.66;38.84;99872.13;5061175;28;20175;-80
2023/04/06 10:13:27;;;;;;;19.20;8.50;;;;;;;11.66;38.79;99875.69;5062007;28;20588;-79
2023/04/06 10:15:54;;;;;;;17.42;9.57;;;;;;;11.56;37.62;99868.28;5061368;28;20032;-80
2023/04/06 10:18:21;;;;;;;17.15;9.65;;;;;;;11.70;38.53;99864.19;5061542;28;20529;-80
2023/04/06 10:20:57;;;;;;;17.20;9.80;;;;;;;11.88;38.26;99857.41;5061902;28;20074;-80
2023/04/06 10:23:47;;;;;;;19.35;8.85;;;;;;;11.80;38.10;99866.97;5061962;28;20075;-80
2023/04/06 10:26:20;;;;;;;19.33;10.27;;;;;;;11.89;37.57;99870.00;5061491;28;20036;-80
2023/04/06 10:28:47;;;;;;;17.23;9.85;;;;;;;11.97;37.97;99865.91;5061873;28;20670;-80
2023/04/06 10:31:12;;;;;;;18.70;10.15;;;;;;;12.09;38.05;99865.63;5061535;28;20033;-79
2023/04/06 10:33:38;;;;;;;16.35;9.60;;;;;;;12.18;37.88;99871.41;5042879;28;20085;-80
2023/04/06 10:36:23;;;;;;;23.52;12.70;;;;;;;12.33;37.23;99862.38;5060776;28;20123;-80
2023/04/06 10:38:55;;;;;;;22.77;10.45;;;;;;;12.36;37.11;99856.38;5061455;28;20033;-80
2023/04/06 10:41:20;;;;;;;25.17;11.60;;;;;;;12.41;37.42;99856.34;5061186;28;20572;-79
2023/04/06 10:43:56;;;;;;;19.40;9.20;;;;;;;12.60;37.20;99866.72;5061173;28;20028;-79
2023/04/06 10:46:26;;;;;;;25.25;13.23;;;;;;;12.51;37.04;99862.94;5061424;28;20107;-79
2023/04/06 10:48:51;;;;;;;18.30;10.25;;;;;;;12.72;37.22;99867.25;5061186;28;20032;-80
2023/04/06 10:51:18;;;;;;;25.88;13.85;;;;;;;12.73;36.84;99855.22;5061076;28;20040;-80
2023/04/06 10:53:46;;;;;;;18.73;10.07;;;;;;;12.65;34.03;99855.78;5060781;28;20028;-80
2023/04/06 10:56:14;;;;;;;22.15;11.57;;;;;;;12.42;35.14;99854.44;5060946;28;20446;-79
2023/04/06 10:58:49;;;;;;;23.83;12.75;;;;;;;12.64;36.45;99856.06;5060952;28;20056;-80
2023/04/06 11:01:17;;;;;;;18.80;9.85;;;;;;;12.53;35.90;99850.59;5042945;28;20025;-80
2023/04/06 11:03:47;;;;;;;20.10;11.77;;;;;;;12.64;35.48;99843.22;5042761;28;20028;-80
2023/04/06 11:06:26;;;;;;;18.67;9.77;;;;;;;12.72;35.30;99847.28;5060836;28;20060;-80
2023/04/06 11:08:53;;;;;;;21.58;12.73;;;;;;;12.84;36.25;99844.25;5060865;28;20544;-79
2023/04/06 11:11:21;;;;;;;23.80;12.75;;;;;;;12.79;35.66;99844.28;5060874;28;20037;-80
2023/04/06 11:13:51;;;;;;;29.83;14.25;;;;;;;12.76;35.00;99836.59;5060965;28;20035;-80
2023/04/06 11:16:34;;;;;;;25.45;13.95;;;;;;;12.79;34.41;99847.00;5060809;28;20090;-79
2023/04/06 11:19:05;;;;;;;22.13;13.10;;;;;;;12.96;34.46;99844.75;5060343;28;20790;-80
2023/04/06 11:21:48;;;;;;;26.52;13.07;;;;;;;13.25;34.97;99839.72;5060483;28;20154;-80
2023/04/06 11:24:19;;;;;;;26.23;13.95;;;;;;;13.42;34.72;99837.44;5064410;28;20035;-80